RKJJ/KWJ METAR and TAF weather

Enter ICAO airport designator
Station Type Date Time Source
RKJJ METAR 2020/02/27 14:00 UTC NOAA

RKJJ 271400Z 15002KT 9999 BKN040 07/04 Q1028 RMK CIG040 SLP287 8/500 9/600


Station Type Date Time Source
RKJJ Decoded METAR 2020/02/27 14:00 UTC NOAA

Kwangju Ab, Korea, South (RKJJ) 35-07N 126-49E 13M
Feb 27, 2020 - 09:00 AM EST / 2020.02.27 1400 UTC
Wind: from the SSE (150 degrees) at 2 MPH (2 KT):0
Visibility: greater than 7 mile(s):0
Sky conditions: mostly cloudy
Temperature: 44 F (7 C)
Dew Point: 39 F (4 C)
Relative Humidity: 81%
Pressure (altimeter): 30.36 in. Hg (1028 hPa)
ob: RKJJ 271400Z 15002KT 9999 BKN040 07/04 Q1028 RMK CIG040 SLP287 8/500 9/600
cycle: 14

Station Type Date Time Source
RKJJ TAF 2020/02/27 12:07 UTC NOAA

TAF RKJJ 271100Z 2712/2818 30006KT 9999 SCT040 TN04/2722Z TX09/2806Z
BECMG 2717/2718 09006KT CAVOK
BECMG 2802/2803 15006KT 4800 -RA BR BKN030 OVC100

Example: see airport list